sensor_id;sensor_type;location;lat;lon;timestamp;temperature;humidity
23685;DHT22;12020;51.384;6.908;2023-05-07T02:43:49;14.30;99.90
23685;DHT22;12020;51.384;6.908;2023-05-07T02:46:19;14.30;99.90
23685;DHT22;12020;51.384;6.908;2023-05-07T02:48:46;14.30;99.90
23685;DHT22;12020;51.384;6.908;2023-05-07T02:51:12;14.20;99.90
23685;DHT22;12020;51.384;6.908;2023-05-07T02:53:43;14.20;99.90
23685;DHT22;12020;51.384;6.908;2023-05-07T02:56:09;14.20;99.90
23685;DHT22;12020;51.384;6.908;2023-05-07T02:58:39;14.20;99.90
23685;DHT22;12020;51.384;6.908;2023-05-07T03:01:08;14.10;99.90
23685;DHT22;12020;51.384;6.908;2023-05-07T03:03:39;14.10;99.90
23685;DHT22;12020;51.384;6.908;2023-05-07T03:06:12;14.20;99.90
23685;DHT22;12020;51.384;6.908;2023-05-07T03:08:38;14.00;99.90
23685;DHT22;12020;51.384;6.908;2023-05-07T03:11:04;14.00;99.90
23685;DHT22;12020;51.384;6.908;2023-05-07T03:13:34;14.00;99.90
23685;DHT22;12020;51.384;6.908;2023-05-07T03:16:00;14.00;99.90
23685;DHT22;12020;51.384;6.908;2023-05-07T03:18:27;14.20;99.90
23685;DHT22;12020;51.384;6.908;2023-05-07T03:20:54;14.00;99.90
23685;DHT22;12020;51.384;6.908;2023-05-07T03:23:20;14.00;99.90
23685;DHT22;12020;51.384;6.908;2023-05-07T03:25:46;13.90;99.90
23685;DHT22;12020;51.384;6.908;2023-05-07T03:28:12;13.90;99.90
23685;DHT22;12020;51.384;6.908;2023-05-07T03:30:39;13.90;99.90
23685;DHT22;12020;51.384;6.908;2023-05-07T03:33:05;13.90;99.90
23685;DHT22;12020;51.384;6.908;2023-05-07T03:35:34;13.90;99.90
23685;DHT22;12020;51.384;6.908;2023-05-07T03:38:01;13.90;99.90
23685;DHT22;12020;51.384;6.908;2023-05-07T03:40:29;13.80;99.90
23685;DHT22;12020;51.384;6.908;2023-05-07T03:42:55;13.90;99.90
23685;DHT22;12020;51.384;6.908;2023-05-07T03:45:24;13.90;99.90
23685;DHT22;12020;51.384;6.908;2023-05-07T03:47:50;14.00;99.90
23685;DHT22;12020;51.384;6.908;2023-05-07T03:50:19;13.90;99.90
23685;DHT22;12020;51.384;6.908;2023-05-07T03:52:46;13.90;99.90
23685;DHT22;12020;51.384;6.908;2023-05-07T03:55:16;13.90;99.90
23685;DHT22;12020;51.384;6.908;2023-05-07T03:57:43;13.80;99.90
23685;DHT22;12020;51.384;6.908;2023-05-07T04:00:11;13.80;99.90
23685;DHT22;12020;51.384;6.908;2023-05-07T04:02:39;13.80;99.90
23685;DHT22;12020;51.384;6.908;2023-05-07T04:05:06;13.80;99.90
23685;DHT22;12020;51.384;6.908;2023-05-07T04:07:32;13.80;99.90
23685;DHT22;12020;51.384;6.908;2023-05-07T04:10:00;13.80;99.90
23685;DHT22;12020;51.384;6.908;2023-05-07T04:12:27;13.80;99.90
23685;DHT22;12020;51.384;6.908;2023-05-07T04:14:58;13.80;99.90
23685;DHT22;12020;51.384;6.908;2023-05-07T04:17:25;13.80;99.90
23685;DHT22;12020;51.384;6.908;2023-05-07T04:19:51;13.80;99.90
23685;DHT22;12020;51.384;6.908;2023-05-07T04:22:17;13.70;99.90
23685;DHT22;12020;51.384;6.908;2023-05-07T04:24:45;13.80;99.90
23685;DHT22;12020;51.384;6.908;2023-05-07T04:27:15;13.70;99.90
23685;DHT22;12020;51.384;6.908;2023-05-07T04:29:44;14.00;99.90
23685;DHT22;12020;51.384;6.908;2023-05-07T04:32:13;13.70;99.90
23685;DHT22;12020;51.384;6.908;2023-05-07T04:34:39;13.70;99.90
23685;DHT22;12020;51.384;6.908;2023-05-07T04:37:10;13.70;99.90
23685;DHT22;12020;51.384;6.908;2023-05-07T04:39:36;13.70;99.90
23685;DHT22;12020;51.384;6.908;2023-05-07T04:42:03;13.80;99.90
23685;DHT22;12020;51.384;6.908;2023-05-07T04:44:29;13.90;99.90
23685;DHT22;12020;51.384;6.908;2023-05-07T04:46:56;13.90;99.90
23685;DHT22;12020;51.384;6.908;2023-05-07T04:49:23;13.80;99.90
23685;DHT22;12020;51.384;6.908;2023-05-07T04:51:50;13.90;99.90
23685;DHT22;12020;51.384;6.908;2023-05-07T04:54:17;13.90;99.90
23685;DHT22;12020;51.384;6.908;2023-05-07T04:56:43;13.90;99.90
23685;DHT22;12020;51.384;6.908;2023-05-07T04:59:09;13.90;99.90
23685;DHT22;12020;51.384;6.908;2023-05-07T05:01:35;13.90;99.90
23685;DHT22;12020;51.384;6.908;2023-05-07T05:04:03;13.90;99.90
23685;DHT22;12020;51.384;6.908;2023-05-07T05:06:30;13.90;99.90
23685;DHT22;12020;51.384;6.908;2023-05-07T05:08:56;14.00;99.90
23685;DHT22;12020;51.384;6.908;2023-05-07T05:11:22;14.00;99.90
23685;DHT22;12020;51.384;6.908;2023-05-07T05:13:49;14.00;99.90
23685;DHT22;12020;51.384;6.908;2023-05-07T05:16:16;14.00;99.90
23685;DHT22;12020;51.384;6.908;2023-05-07T05:18:43;14.10;99.90
23685;DHT22;12020;51.384;6.908;2023-05-07T05:21:10;14.00;99.90
23685;DHT22;12020;51.384;6.908;2023-05-07T05:23:39;14.10;99.90
23685;DHT22;12020;51.384;6.908;2023-05-07T05:26:06;14.20;99.90
23685;DHT22;12020;51.384;6.908;2023-05-07T05:28:32;14.10;99.90
23685;DHT22;12020;51.384;6.908;2023-05-07T05:30:58;14.20;99.90
23685;DHT22;12020;51.384;6.908;2023-05-07T05:33:24;14.20;99.90
23685;DHT22;12020;51.384;6.908;2023-05-07T05:35:49;14.20;99.90
23685;DHT22;12020;51.384;6.908;2023-05-07T05:38:17;14.30;99.90
23685;DHT22;12020;51.384;6.908;2023-05-07T05:40:46;14.30;99.90
23685;DHT22;12020;51.384;6.908;2023-05-07T05:43:17;14.20;99.90
23685;DHT22;12020;51.384;6.908;2023-05-07T05:45:45;14.40;99.90
23685;DHT22;12020;51.384;6.908;2023-05-07T05:48:11;14.40;99.90
23685;DHT22;12020;51.384;6.908;2023-05-07T05:50:38;14.40;99.90
23685;DHT22;12020;51.384;6.908;2023-05-07T05:53:06;14.50;99.90
23685;DHT22;12020;51.384;6.908;2023-05-07T05:55:32;14.50;99.90
23685;DHT22;12020;51.384;6.908;2023-05-07T05:58:16;14.50;99.90
23685;DHT22;12020;51.384;6.908;2023-05-07T06:00:49;14.60;99.90
23685;DHT22;12020;51.384;6.908;2023-05-07T06:03:38;14.60;99.90
23685;DHT22;12020;51.384;6.908;2023-05-07T06:09:18;14.70;99.90
23685;DHT22;12020;51.384;6.908;2023-05-07T06:11:46;14.70;99.90
23685;DHT22;12020;51.384;6.908;2023-05-07T06:14:12;14.80;99.90
23685;DHT22;12020;51.384;6.908;2023-05-07T06:16:38;14.80;99.90
23685;DHT22;12020;51.384;6.908;2023-05-07T06:24:15;15.10;99.90
23685;DHT22;12020;51.384;6.908;2023-05-07T06:26:40;15.10;99.90
23685;DHT22;12020;51.384;6.908;2023-05-07T06:29:06;15.20;99.90
23685;DHT22;12020;51.384;6.908;2023-05-07T06:31:34;15.30;99.90
23685;DHT22;12020;51.384;6.908;2023-05-07T06:34:01;15.30;99.90
23685;DHT22;12020;51.384;6.908;2023-05-07T06:36:28;15.40;99.90
23685;DHT22;12020;51.384;6.908;2023-05-07T06:39:03;15.40;99.90
23685;DHT22;12020;51.384;6.908;2023-05-07T06:41:29;15.40;99.90
23685;DHT22;12020;51.384;6.908;2023-05-07T06:43:55;15.60;99.90
23685;DHT22;12020;51.384;6.908;2023-05-07T06:46:34;15.60;99.90
23685;DHT22;12020;51.384;6.908;2023-05-07T06:49:00;15.70;99.90
23685;DHT22;12020;51.384;6.908;2023-05-07T06:51:26;15.70;99.90
23685;DHT22;12020;51.384;6.908;2023-05-07T06:53:54;15.80;99.90
23685;DHT22;12020;51.384;6.908;2023-05-07T06:56:20;15.90;99.90
23685;DHT22;12020;51.384;6.908;2023-05-07T06:58:47;15.90;99.90
23685;DHT22;12020;51.384;6.908;2023-05-07T07:01:14;15.90;99.90
23685;DHT22;12020;51.384;6.908;2023-05-07T07:03:43;16.00;99.90
23685;DHT22;12020;51.384;6.908;2023-05-07T07:06:09;16.10;99.90
23685;DHT22;12020;51.384;6.908;2023-05-07T07:08:36;16.10;99.90
23685;DHT22;12020;51.384;6.908;2023-05-07T07:11:05;16.10;99.90
23685;DHT22;12020;51.384;6.908;2023-05-07T07:13:32;16.30;99.90
23685;DHT22;12020;51.384;6.908;2023-05-07T07:16:00;16.40;99.90
23685;DHT22;12020;51.384;6.908;2023-05-07T07:18:26;16.50;99.90
23685;DHT22;12020;51.384;6.908;2023-05-07T07:20:53;16.60;99.90
23685;DHT22;12020;51.384;6.908;2023-05-07T07:23:19;16.60;99.90
23685;DHT22;12020;51.384;6.908;2023-05-07T07:25:45;16.70;99.90
23685;DHT22;12020;51.384;6.908;2023-05-07T07:28:14;16.80;99.90
23685;DHT22;12020;51.384;6.908;2023-05-07T07:30:43;16.90;99.90
23685;DHT22;12020;51.384;6.908;2023-05-07T07:33:09;16.90;99.90
23685;DHT22;12020;51.384;6.908;2023-05-07T07:35:37;17.00;99.90
23685;DHT22;12020;51.384;6.908;2023-05-07T07:38:03;17.10;99.90
23685;DHT22;12020;51.384;6.908;2023-05-07T07:40:34;17.10;99.90
23685;DHT22;12020;51.384;6.908;2023-05-07T07:43:00;17.20;99.90
23685;DHT22;12020;51.384;6.908;2023-05-07T07:45:27;17.20;99.90
23685;DHT22;12020;51.384;6.908;2023-05-07T07:47:56;17.30;99.90
23685;DHT22;12020;51.384;6.908;2023-05-07T07:55:37;17.50;99.90
23685;DHT22;12020;51.384;6.908;2023-05-07T08:18:54;18.30;99.90
23685;DHT22;12020;51.384;6.908;2023-05-07T08:21:20;18.40;99.90
23685;DHT22;12020;51.384;6.908;2023-05-07T08:23:47;18.60;99.90
23685;DHT22;12020;51.384;6.908;2023-05-07T08:26:15;18.70;99.90
23685;DHT22;12020;51.384;6.908;2023-05-07T08:28:41;18.80;99.90
23685;DHT22;12020;51.384;6.908;2023-05-07T08:31:14;19.00;99.90
23685;DHT22;12020;51.384;6.908;2023-05-07T08:33:51;19.10;99.90
23685;DHT22;12020;51.384;6.908;2023-05-07T08:36:19;19.40;99.90
23685;DHT22;12020;51.384;6.908;2023-05-07T08:38:45;19.60;99.90
23685;DHT22;12020;51.384;6.908;2023-05-07T08:41:18;19.80;99.90
23685;DHT22;12020;51.384;6.908;2023-05-07T08:43:50;20.10;99.90
23685;DHT22;12020;51.384;6.908;2023-05-07T08:46:25;20.30;99.90
23685;DHT22;12020;51.384;6.908;2023-05-07T08:48:58;20.50;99.90
23685;DHT22;12020;51.384;6.908;2023-05-07T08:51:27;20.70;99.90
23685;DHT22;12020;51.384;6.908;2023-05-07T08:54:01;20.90;99.90
23685;DHT22;12020;51.384;6.908;2023-05-07T08:56:27;21.10;99.90
23685;DHT22;12020;51.384;6.908;2023-05-07T08:58:54;21.30;99.90
23685;DHT22;12020;51.384;6.908;2023-05-07T09:01:24;21.50;99.90
23685;DHT22;12020;51.384;6.908;2023-05-07T09:03:50;21.60;99.90
23685;DHT22;12020;51.384;6.908;2023-05-07T09:06:16;21.60;99.90
23685;DHT22;12020;51.384;6.908;2023-05-07T09:08:52;21.60;99.90
23685;DHT22;12020;51.384;6.908;2023-05-07T09:11:34;21.60;99.90
23685;DHT22;12020;51.384;6.908;2023-05-07T09:14:00;21.70;99.90
23685;DHT22;12020;51.384;6.908;2023-05-07T09:16:30;21.70;99.90
23685;DHT22;12020;51.384;6.908;2023-05-07T09:18:58;21.70;99.90
23685;DHT22;12020;51.384;6.908;2023-05-07T09:21:24;21.70;99.90
23685;DHT22;12020;51.384;6.908;2023-05-07T09:23:54;21.70;99.90
23685;DHT22;12020;51.384;6.908;2023-05-07T09:28:52;21.70;99.90
23685;DHT22;12020;51.384;6.908;2023-05-07T09:31:18;21.80;99.90
23685;DHT22;12020;51.384;6.908;2023-05-07T09:33:45;21.90;99.90
23685;DHT22;12020;51.384;6.908;2023-05-07T09:36:11;21.90;99.90
23685;DHT22;12020;51.384;6.908;2023-05-07T09:38:38;22.00;99.90
23685;DHT22;12020;51.384;6.908;2023-05-07T09:41:08;22.10;99.90
23685;DHT22;12020;51.384;6.908;2023-05-07T09:43:36;22.30;99.90
23685;DHT22;12020;51.384;6.908;2023-05-07T09:46:06;22.50;99.90
23685;DHT22;12020;51.384;6.908;2023-05-07T09:48:41;22.50;99.90
23685;DHT22;12020;51.384;6.908;2023-05-07T09:51:32;22.70;99.90
23685;DHT22;12020;51.384;6.908;2023-05-07T09:54:00;22.80;99.90
23685;DHT22;12020;51.384;6.908;2023-05-07T09:56:37;22.90;99.90
23685;DHT22;12020;51.384;6.908;2023-05-07T10:01:41;23.00;99.90
23685;DHT22;12020;51.384;6.908;2023-05-07T10:04:10;22.90;99.90
23685;DHT22;12020;51.384;6.908;2023-05-07T10:06:37;23.00;99.90
23685;DHT22;12020;51.384;6.908;2023-05-07T10:09:13;23.00;99.90
23685;DHT22;12020;51.384;6.908;2023-05-07T10:11:51;23.00;99.90
23685;DHT22;12020;51.384;6.908;2023-05-07T10:14:20;23.00;99.90
23685;DHT22;12020;51.384;6.908;2023-05-07T10:16:49;23.00;99.90
23685;DHT22;12020;51.384;6.908;2023-05-07T10:19:24;23.00;99.90
23685;DHT22;12020;51.384;6.908;2023-05-07T10:22:05;22.90;99.90
23685;DHT22;12020;51.384;6.908;2023-05-07T10:24:36;22.90;99.90
23685;DHT22;12020;51.384;6.908;2023-05-07T10:27:19;22.90;99.90
23685;DHT22;12020;51.384;6.908;2023-05-07T10:32:42;22.80;99.90
23685;DHT22;12020;51.384;6.908;2023-05-07T10:35:31;22.90;99.90
23685;DHT22;12020;51.384;6.908;2023-05-07T10:38:03;22.90;99.90
23685;DHT22;12020;51.384;6.908;2023-05-07T10:40:37;23.00;99.90
23685;DHT22;12020;51.384;6.908;2023-05-07T10:43:12;23.00;99.90
23685;DHT22;12020;51.384;6.908;2023-05-07T10:45:39;23.10;99.90
23685;DHT22;12020;51.384;6.908;2023-05-07T10:48:13;23.20;99.90
23685;DHT22;12020;51.384;6.908;2023-05-07T10:50:41;23.20;99.90
23685;DHT22;12020;51.384;6.908;2023-05-07T10:58:50;23.10;99.90
23685;DHT22;12020;51.384;6.908;2023-05-07T11:01:55;23.00;99.90
23685;DHT22;12020;51.384;6.908;2023-05-07T11:04:31;23.00;99.90
23685;DHT22;12020;51.384;6.908;2023-05-07T11:15:13;23.60;99.90
23685;DHT22;12020;51.384;6.908;2023-05-07T11:18:01;23.70;99.90
23685;DHT22;12020;51.384;6.908;2023-05-07T11:20:49;23.90;99.90
23685;DHT22;12020;51.384;6.908;2023-05-07T11:26:06;24.10;99.90
23685;DHT22;12020;51.384;6.908;2023-05-07T11:28:43;23.90;99.90
23685;DHT22;12020;51.384;6.908;2023-05-07T11:31:25;23.90;99.90
23685;DHT22;12020;51.384;6.908;2023-05-07T11:33:54;23.70;99.90
23685;DHT22;12020;51.384;6.908;2023-05-07T11:36:31;23.60;99.90
23685;DHT22;12020;51.384;6.908;2023-05-07T11:39:00;23.40;99.90
23685;DHT22;12020;51.384;6.908;2023-05-07T11:41:41;23.30;99.90
23685;DHT22;12020;51.384;6.908;2023-05-07T11:44:10;23.20;99.90
23685;DHT22;12020;51.384;6.908;2023-05-07T11:46:36;23.20;99.90
23685;DHT22;12020;51.384;6.908;2023-05-07T11:49:05;23.10;99.90
23685;DHT22;12020;51.384;6.908;2023-05-07T11:51:34;23.00;99.90
23685;DHT22;12020;51.384;6.908;2023-05-07T11:54:16;23.00;99.90
23685;DHT22;12020;51.384;6.908;2023-05-07T11:56:43;23.00;99.90
23685;DHT22;12020;51.384;6.908;2023-05-07T11:59:16;23.00;99.90
23685;DHT22;12020;51.384;6.908;2023-05-07T12:01:45;22.90;99.90
23685;DHT22;12020;51.384;6.908;2023-05-07T12:04:23;22.80;99.90
23685;DHT22;12020;51.384;6.908;2023-05-07T12:06:56;22.80;99.90
23685;DHT22;12020;51.384;6.908;2023-05-07T12:09:25;22.80;99.90
23685;DHT22;12020;51.384;6.908;2023-05-07T12:11:54;22.70;99.90
23685;DHT22;12020;51.384;6.908;2023-05-07T12:14:44;22.80;99.90
23685;DHT22;12020;51.384;6.908;2023-05-07T12:17:12;22.70;99.90
23685;DHT22;12020;51.384;6.908;2023-05-07T12:19:43;22.70;99.90
23685;DHT22;12020;51.384;6.908;2023-05-07T12:22:10;22.70;99.90
23685;DHT22;12020;51.384;6.908;2023-05-07T12:24:57;22.70;99.90
23685;DHT22;12020;51.384;6.908;2023-05-07T12:40:41;22.50;99.90
23685;DHT22;12020;51.384;6.908;2023-05-07T12:43:42;22.40;99.90
23685;DHT22;12020;51.384;6.908;2023-05-07T12:46:12;22.30;99.90
23685;DHT22;12020;51.384;6.908;2023-05-07T12:51:21;22.20;99.90
23685;DHT22;12020;51.384;6.908;2023-05-07T12:53:59;22.10;99.90
23685;DHT22;12020;51.384;6.908;2023-05-07T12:56:26;21.90;99.90
23685;DHT22;12020;51.384;6.908;2023-05-07T12:58:57;21.60;99.90
23685;DHT22;12020;51.384;6.908;2023-05-07T13:01:29;21.50;99.90
23685;DHT22;12020;51.384;6.908;2023-05-07T13:04:00;21.20;99.90
23685;DHT22;12020;51.384;6.908;2023-05-07T13:06:26;21.00;99.90
23685;DHT22;12020;51.384;6.908;2023-05-07T13:08:53;20.80;99.90
23685;DHT22;12020;51.384;6.908;2023-05-07T13:29:41;19.90;99.90
23685;DHT22;12020;51.384;6.908;2023-05-07T13:32:07;19.90;99.90
23685;DHT22;12020;51.384;6.908;2023-05-07T13:34:34;19.80;99.90
23685;DHT22;12020;51.384;6.908;2023-05-07T13:37:02;19.70;99.90
23685;DHT22;12020;51.384;6.908;2023-05-07T13:39:30;19.80;99.90
23685;DHT22;12020;51.384;6.908;2023-05-07T13:42:06;19.80;99.90
23685;DHT22;12020;51.384;6.908;2023-05-07T13:44:38;19.80;99.90
23685;DHT22;12020;51.384;6.908;2023-05-07T13:47:13;19.90;99.90
23685;DHT22;12020;51.384;6.908;2023-05-07T13:49:51;19.90;99.90
23685;DHT22;12020;51.384;6.908;2023-05-07T13:52:18;19.90;99.90
23685;DHT22;12020;51.384;6.908;2023-05-07T13:55:00;19.90;99.90
23685;DHT22;12020;51.384;6.908;2023-05-07T13:57:38;19.80;99.90
23685;DHT22;12020;51.384;6.908;2023-05-07T14:00:19;19.80;99.90
23685;DHT22;12020;51.384;6.908;2023-05-07T14:02:50;19.70;99.90
23685;DHT22;12020;51.384;6.908;2023-05-07T14:05:43;19.60;99.90
23685;DHT22;12020;51.384;6.908;2023-05-07T14:08:15;19.50;99.90
23685;DHT22;12020;51.384;6.908;2023-05-07T14:10:42;19.50;99.90
23685;DHT22;12020;51.384;6.908;2023-05-07T14:13:30;19.40;99.90
23685;DHT22;12020;51.384;6.908;2023-05-07T14:16:16;19.40;99.90
23685;DHT22;12020;51.384;6.908;2023-05-07T15:01:20;19.20;99.90
23685;DHT22;12020;51.384;6.908;2023-05-07T15:03:46;19.20;99.90
23685;DHT22;12020;51.384;6.908;2023-05-07T17:11:36;19.50;99.90
23685;DHT22;12020;51.384;6.908;2023-05-07T17:14:03;19.50;99.90
23685;DHT22;12020;51.384;6.908;2023-05-07T17:16:28;19.40;99.90
23685;DHT22;12020;51.384;6.908;2023-05-07T17:18:54;19.30;99.90
23685;DHT22;12020;51.384;6.908;2023-05-07T17:21:20;19.30;99.90
23685;DHT22;12020;51.384;6.908;2023-05-07T17:23:46;19.20;99.90
23685;DHT22;12020;51.384;6.908;2023-05-07T17:26:12;19.20;99.90
23685;DHT22;12020;51.384;6.908;2023-05-07T17:28:40;19.10;99.90
23685;DHT22;12020;51.384;6.908;2023-05-07T17:31:06;19.10;99.90
23685;DHT22;12020;51.384;6.908;2023-05-07T17:33:33;19.10;99.90
23685;DHT22;12020;51.384;6.908;2023-05-07T17:35:59;19.10;99.90
23685;DHT22;12020;51.384;6.908;2023-05-07T17:38:30;19.00;99.90
23685;DHT22;12020;51.384;6.908;2023-05-07T17:41:00;19.00;99.90
23685;DHT22;12020;51.384;6.908;2023-05-07T17:43:26;19.00;99.90
23685;DHT22;12020;51.384;6.908;2023-05-07T17:45:52;18.90;99.90
23685;DHT22;12020;51.384;6.908;2023-05-07T17:48:19;18.90;99.90
23685;DHT22;12020;51.384;6.908;2023-05-07T17:50:45;18.90;99.90
23685;DHT22;12020;51.384;6.908;2023-05-07T17:53:11;18.90;99.90
23685;DHT22;12020;51.384;6.908;2023-05-07T17:55:44;18.90;99.90
23685;DHT22;12020;51.384;6.908;2023-05-07T17:58:11;18.90;99.90
23685;DHT22;12020;51.384;6.908;2023-05-07T18:00:38;18.90;99.90
23685;DHT22;12020;51.384;6.908;2023-05-07T18:03:04;18.90;99.90
23685;DHT22;12020;51.384;6.908;2023-05-07T18:05:30;18.90;99.90
23685;DHT22;12020;51.384;6.908;2023-05-07T18:07:57;18.80;99.90
23685;DHT22;12020;51.384;6.908;2023-05-07T18:10:23;18.70;99.90
23685;DHT22;12020;51.384;6.908;2023-05-07T18:12:49;18.70;99.90
23685;DHT22;12020;51.384;6.908;2023-05-07T18:15:15;18.70;99.90
23685;DHT22;12020;51.384;6.908;2023-05-07T18:17:42;18.70;99.90
23685;DHT22;12020;51.384;6.908;2023-05-07T18:20:08;18.50;99.90
23685;DHT22;12020;51.384;6.908;2023-05-07T18:22:36;18.50;99.90
23685;DHT22;12020;51.384;6.908;2023-05-07T18:25:03;18.50;99.90
23685;DHT22;12020;51.384;6.908;2023-05-07T18:27:29;18.50;99.90
23685;DHT22;12020;51.384;6.908;2023-05-07T18:29:55;18.50;99.90
23685;DHT22;12020;51.384;6.908;2023-05-07T18:32:21;18.40;99.90
23685;DHT22;12020;51.384;6.908;2023-05-07T18:34:48;18.40;99.90
23685;DHT22;12020;51.384;6.908;2023-05-07T18:37:14;18.30;99.90
23685;DHT22;12020;51.384;6.908;2023-05-07T18:39:41;18.30;99.90
23685;DHT22;12020;51.384;6.908;2023-05-07T18:42:11;18.30;99.90
23685;DHT22;12020;51.384;6.908;2023-05-07T18:44:37;18.30;99.90
23685;DHT22;12020;51.384;6.908;2023-05-07T18:47:07;18.30;99.90
23685;DHT22;12020;51.384;6.908;2023-05-07T18:49:34;18.30;99.90
23685;DHT22;12020;51.384;6.908;2023-05-07T18:52:00;18.30;99.90
23685;DHT22;12020;51.384;6.908;2023-05-07T18:54:27;18.30;99.90
23685;DHT22;12020;51.384;6.908;2023-05-07T18:56:53;18.20;99.90
23685;DHT22;12020;51.384;6.908;2023-05-07T18:59:20;18.10;99.90
23685;DHT22;12020;51.384;6.908;2023-05-07T19:01:46;18.10;99.90
23685;DHT22;12020;51.384;6.908;2023-05-07T19:04:12;18.10;99.90
23685;DHT22;12020;51.384;6.908;2023-05-07T19:06:38;18.10;99.90
23685;DHT22;12020;51.384;6.908;2023-05-07T19:09:04;18.10;99.90
23685;DHT22;12020;51.384;6.908;2023-05-07T19:11:30;18.00;99.90
23685;DHT22;12020;51.384;6.908;2023-05-07T19:13:56;17.90;99.90
23685;DHT22;12020;51.384;6.908;2023-05-07T19:16:23;17.90;99.90
23685;DHT22;12020;51.384;6.908;2023-05-07T19:18:50;17.90;99.90
23685;DHT22;12020;51.384;6.908;2023-05-07T19:21:16;17.80;99.90
23685;DHT22;12020;51.384;6.908;2023-05-07T19:23:42;17.80;99.90
23685;DHT22;12020;51.384;6.908;2023-05-07T19:26:09;17.80;99.90
23685;DHT22;12020;51.384;6.908;2023-05-07T19:28:37;17.80;99.90
23685;DHT22;12020;51.384;6.908;2023-05-07T19:31:03;17.80;99.90
23685;DHT22;12020;51.384;6.908;2023-05-07T19:33:32;17.80;99.90
23685;DHT22;12020;51.384;6.908;2023-05-07T19:35:59;17.70;99.90
23685;DHT22;12020;51.384;6.908;2023-05-07T19:38:44;17.70;99.90
23685;DHT22;12020;51.384;6.908;2023-05-07T19:41:11;17.70;99.90
23685;DHT22;12020;51.384;6.908;2023-05-07T19:43:38;17.60;99.90
23685;DHT22;12020;51.384;6.908;2023-05-07T19:46:04;17.60;99.90
23685;DHT22;12020;51.384;6.908;2023-05-07T19:48:31;17.60;99.90
23685;DHT22;12020;51.384;6.908;2023-05-07T19:50:58;17.60;99.90
23685;DHT22;12020;51.384;6.908;2023-05-07T19:53:25;17.60;99.90
23685;DHT22;12020;51.384;6.908;2023-05-07T19:56:01;17.60;99.90
23685;DHT22;12020;51.384;6.908;2023-05-07T19:58:27;17.50;99.90
23685;DHT22;12020;51.384;6.908;2023-05-07T20:00:53;17.50;99.90
23685;DHT22;12020;51.384;6.908;2023-05-07T20:03:19;17.40;99.90
23685;DHT22;12020;51.384;6.908;2023-05-07T20:05:46;17.40;99.90
23685;DHT22;12020;51.384;6.908;2023-05-07T20:08:12;17.40;99.90
23685;DHT22;12020;51.384;6.908;2023-05-07T20:10:37;17.40;99.90
23685;DHT22;12020;51.384;6.908;2023-05-07T20:13:03;17.40;99.90
23685;DHT22;12020;51.384;6.908;2023-05-07T20:15:29;17.40;99.90
23685;DHT22;12020;51.384;6.908;2023-05-07T20:17:56;17.40;99.90
23685;DHT22;12020;51.384;6.908;2023-05-07T20:20:22;17.40;99.90
23685;DHT22;12020;51.384;6.908;2023-05-07T20:22:47;17.40;99.90
23685;DHT22;12020;51.384;6.908;2023-05-07T20:25:14;17.30;99.90
23685;DHT22;12020;51.384;6.908;2023-05-07T20:27:40;17.30;99.90
23685;DHT22;12020;51.384;6.908;2023-05-07T20:30:07;17.30;99.90
23685;DHT22;12020;51.384;6.908;2023-05-07T20:32:33;17.30;99.90
23685;DHT22;12020;51.384;6.908;2023-05-07T20:37:40;17.30;99.90
23685;DHT22;12020;51.384;6.908;2023-05-07T20:40:19;17.20;99.90
23685;DHT22;12020;51.384;6.908;2023-05-07T20:43:11;17.30;99.90
23685;DHT22;12020;51.384;6.908;2023-05-07T20:48:38;17.30;99.90
23685;DHT22;12020;51.384;6.908;2023-05-07T20:51:20;17.30;99.90
23685;DHT22;12020;51.384;6.908;2023-05-07T20:53:52;17.30;99.90
23685;DHT22;12020;51.384;6.908;2023-05-07T20:56:18;17.30;99.90
23685;DHT22;12020;51.384;6.908;2023-05-07T21:01:41;17.20;99.90
23685;DHT22;12020;51.384;6.908;2023-05-07T21:04:14;17.20;99.90
23685;DHT22;12020;51.384;6.908;2023-05-07T21:06:43;17.20;99.90
23685;DHT22;12020;51.384;6.908;2023-05-07T21:09:33;17.20;99.90
23685;DHT22;12020;51.384;6.908;2023-05-07T21:12:03;17.10;99.90
23685;DHT22;12020;51.384;6.908;2023-05-07T21:14:31;17.10;99.90
23685;DHT22;12020;51.384;6.908;2023-05-07T21:16:58;17.20;99.90
23685;DHT22;12020;51.384;6.908;2023-05-07T21:19:32;17.10;99.90
23685;DHT22;12020;51.384;6.908;2023-05-07T21:22:08;17.10;99.90
23685;DHT22;12020;51.384;6.908;2023-05-07T21:24:36;17.10;99.90
23685;DHT22;12020;51.384;6.908;2023-05-07T21:27:09;17.10;99.90
23685;DHT22;12020;51.384;6.908;2023-05-07T21:29:37;17.10;99.90
23685;DHT22;12020;51.384;6.908;2023-05-07T21:32:07;17.00;99.90
23685;DHT22;12020;51.384;6.908;2023-05-07T21:34:35;17.00;99.90
23685;DHT22;12020;51.384;6.908;2023-05-07T21:37:04;17.00;99.90
23685;DHT22;12020;51.384;6.908;2023-05-07T21:39:30;17.00;99.90
23685;DHT22;12020;51.384;6.908;2023-05-07T21:42:03;17.00;99.90
23685;DHT22;12020;51.384;6.908;2023-05-07T21:44:30;17.00;99.90
23685;DHT22;12020;51.384;6.908;2023-05-07T21:47:04;17.00;99.90
23685;DHT22;12020;51.384;6.908;2023-05-07T21:49:49;17.00;99.90
23685;DHT22;12020;51.384;6.908;2023-05-07T21:52:19;16.90;99.90
23685;DHT22;12020;51.384;6.908;2023-05-07T21:54:51;16.90;99.90
23685;DHT22;12020;51.384;6.908;2023-05-07T21:57:34;16.90;99.90
23685;DHT22;12020;51.384;6.908;2023-05-07T22:00:01;16.90;99.90
23685;DHT22;12020;51.384;6.908;2023-05-07T22:02:36;16.90;99.90
23685;DHT22;12020;51.384;6.908;2023-05-07T22:05:12;16.90;99.90
23685;DHT22;12020;51.384;6.908;2023-05-07T22:07:43;16.90;99.90
23685;DHT22;12020;51.384;6.908;2023-05-07T22:10:10;16.80;99.90
23685;DHT22;12020;51.384;6.908;2023-05-07T22:12:43;16.80;99.90
23685;DHT22;12020;51.384;6.908;2023-05-07T22:15:10;16.80;99.90
23685;DHT22;12020;51.384;6.908;2023-05-07T22:17:40;16.80;99.90
23685;DHT22;12020;51.384;6.908;2023-05-07T22:20:08;16.80;99.90
23685;DHT22;12020;51.384;6.908;2023-05-07T22:22:49;16.80;99.90
23685;DHT22;12020;51.384;6.908;2023-05-07T22:25:23;16.70;99.90
23685;DHT22;12020;51.384;6.908;2023-05-07T22:28:04;16.80;99.90
23685;DHT22;12020;51.384;6.908;2023-05-07T22:30:31;16.80;99.90
23685;DHT22;12020;51.384;6.908;2023-05-07T22:33:07;16.70;99.90
23685;DHT22;12020;51.384;6.908;2023-05-07T22:35:39;16.80;99.90
23685;DHT22;12020;51.384;6.908;2023-05-07T22:38:07;16.70;99.90
23685;DHT22;12020;51.384;6.908;2023-05-07T22:40:36;16.70;99.90
23685;DHT22;12020;51.384;6.908;2023-05-07T22:43:04;16.70;99.90
23685;DHT22;12020;51.384;6.908;2023-05-07T22:45:36;16.70;99.90
23685;DHT22;12020;51.384;6.908;2023-05-07T22:48:11;16.70;99.90
23685;DHT22;12020;51.384;6.908;2023-05-07T22:50:45;16.70;99.90
23685;DHT22;12020;51.384;6.908;2023-05-07T22:53:13;16.70;99.90
23685;DHT22;12020;51.384;6.908;2023-05-07T22:55:42;16.70;99.90
23685;DHT22;12020;51.384;6.908;2023-05-07T22:58:11;16.60;99.90